CCM130 LFKJ-LFLL
Flight info
| Callsign | CCM130 |
|---|---|
| Flight time | 0h 53m |
| Altitude | 36000 |
| Route | LONSU M622 PIGOS DCT BODRU DCT KOTIT/N0366F180 Y42 LASUR Z42 PINED |
| Aircraft | A20N/M-SDE2E3FGHIRWXY/LB1 |
Departure
| Time | 2026-05-07 06:39 |
|---|---|
| Airport | Ajaccio Napoléon Bonaparte airport (LFKJ) |
Arrival
| Time | 2026-05-07 07:33 |
|---|---|
| Airport | Lyon Saint-Exupéry Airport (LFLL) |
| Time | Latitude | Longitude | Altitude | Speed | Heading |
|---|---|---|---|---|---|
| 2026-05-07 06:06 | 41.91970 | 8.79570 | 21 ft | 0 kts | 345° |
| 2026-05-07 06:31 | 41.91960 | 8.79572 | 21 ft | 4 kts | 284° |
| 2026-05-07 06:31 | 41.91965 | 8.79587 | 24 ft | 4 kts | 231° |
| 2026-05-07 06:31 | 41.91977 | 8.79605 | 22 ft | 1 kts | 230° |
| 2026-05-07 06:32 | 41.91979 | 8.79608 | 21 ft | 0 kts | 230° |
| 2026-05-07 06:35 | 41.91970 | 8.79596 | 22 ft | 5 kts | 223° |
| 2026-05-07 06:35 | 41.91965 | 8.79627 | 21 ft | 8 kts | 75° |
| 2026-05-07 06:35 | 41.92031 | 8.79687 | 21 ft | 12 kts | 25° |
| 2026-05-07 06:36 | 41.92121 | 8.79743 | 21 ft | 17 kts | 25° |
| 2026-05-07 06:36 | 41.92240 | 8.79818 | 24 ft | 20 kts | 25° |
| 2026-05-07 06:36 | 41.92369 | 8.79899 | 23 ft | 21 kts | 25° |
| 2026-05-07 06:36 | 41.92505 | 8.79984 | 21 ft | 22 kts | 25° |
| 2026-05-07 06:37 | 41.92644 | 8.80069 | 23 ft | 22 kts | 24° |
| 2026-05-07 06:37 | 41.92777 | 8.80158 | 21 ft | 21 kts | 29° |
| 2026-05-07 06:37 | 41.92831 | 8.80247 | 21 ft | 11 kts | 93° |
| 2026-05-07 06:37 | 41.92803 | 8.80328 | 23 ft | 6 kts | 114° |
| 2026-05-07 06:38 | 41.92797 | 8.80346 | 22 ft | 0 kts | 115° |
| 2026-05-07 06:38 | 41.92797 | 8.80347 | 22 ft | 1 kts | 115° |
| 2026-05-07 06:38 | 41.92773 | 8.80418 | 24 ft | 14 kts | 114° |
| 2026-05-07 06:38 | 41.92688 | 8.80429 | 25 ft | 7 kts | 207° |
| 2026-05-07 06:39 | 41.92656 | 8.80410 | 25 ft | 27 kts | 204° |
| 2026-05-07 06:39 | 41.92199 | 8.80125 | 23 ft | 115 kts | 205° |
| 2026-05-07 06:39 | 41.91262 | 8.79534 | 97 ft | 173 kts | 206° |
| 2026-05-07 06:39 | 41.90182 | 8.78801 | 895 ft | 174 kts | 206° |
| 2026-05-07 06:40 | 41.89104 | 8.77993 | 1754 ft | 179 kts | 212° |
| 2026-05-07 06:40 | 41.87704 | 8.76715 | 2487 ft | 194 kts | 215° |
| 2026-05-07 06:40 | 41.86928 | 8.75979 | 2661 ft | 211 kts | 215° |
| 2026-05-07 06:40 | 41.85653 | 8.74774 | 2948 ft | 239 kts | 216° |
| 2026-05-07 06:41 | 41.84207 | 8.73415 | 3007 ft | 262 kts | 215° |
| 2026-05-07 06:41 | 41.82703 | 8.72009 | 3009 ft | 264 kts | 216° |
| 2026-05-07 06:41 | 41.81193 | 8.70606 | 3010 ft | 264 kts | 215° |
| 2026-05-07 06:41 | 41.79684 | 8.69211 | 3008 ft | 264 kts | 216° |
| 2026-05-07 06:42 | 41.78143 | 8.67813 | 3478 ft | 270 kts | 215° |
| 2026-05-07 06:42 | 41.76599 | 8.66428 | 4582 ft | 266 kts | 215° |
| 2026-05-07 06:42 | 41.75062 | 8.65053 | 5554 ft | 266 kts | 215° |
| 2026-05-07 06:42 | 41.73523 | 8.63650 | 6439 ft | 269 kts | 220° |
| 2026-05-07 06:43 | 41.72335 | 8.61736 | 7230 ft | 270 kts | 245° |
| 2026-05-07 06:43 | 41.71884 | 8.59313 | 8056 ft | 271 kts | 270° |
| 2026-05-07 06:43 | 41.72252 | 8.56875 | 8877 ft | 275 kts | 294° |
| 2026-05-07 06:43 | 41.73178 | 8.54616 | 9725 ft | 278 kts | 298° |
| 2026-05-07 06:44 | 41.74158 | 8.52314 | 10385 ft | 288 kts | 298° |
| 2026-05-07 06:44 | 41.75189 | 8.49888 | 10613 ft | 311 kts | 297° |
| 2026-05-07 06:44 | 41.76278 | 8.47306 | 10780 ft | 334 kts | 297° |
| 2026-05-07 06:44 | 41.77456 | 8.44502 | 11240 ft | 345 kts | 297° |
| 2026-05-07 06:45 | 41.78627 | 8.41717 | 11896 ft | 350 kts | 297° |
| 2026-05-07 06:45 | 41.79827 | 8.38861 | 12591 ft | 353 kts | 297° |
| 2026-05-07 06:45 | 41.81036 | 8.35975 | 13293 ft | 357 kts | 297° |
| 2026-05-07 06:45 | 41.82457 | 8.33217 | 13952 ft | 364 kts | 308° |
| 2026-05-07 06:46 | 41.84342 | 8.30907 | 14574 ft | 372 kts | 321° |
| 2026-05-07 06:46 | 41.86616 | 8.29196 | 15179 ft | 380 kts | 334° |
| 2026-05-07 06:46 | 41.89178 | 8.28191 | 15769 ft | 388 kts | 344° |
| 2026-05-07 06:46 | 41.91827 | 8.27436 | 16405 ft | 390 kts | 344° |
| 2026-05-07 06:47 | 41.94495 | 8.26679 | 17007 ft | 393 kts | 344° |
| 2026-05-07 06:47 | 41.97183 | 8.25912 | 17585 ft | 397 kts | 343° |
| 2026-05-07 06:47 | 41.99902 | 8.25133 | 17941 ft | 401 kts | 343° |
| 2026-05-07 06:47 | 42.02649 | 8.24341 | 18019 ft | 412 kts | 343° |
| 2026-05-07 06:48 | 42.05497 | 8.23510 | 18022 ft | 423 kts | 343° |
| 2026-05-07 06:48 | 42.08388 | 8.22668 | 18015 ft | 426 kts | 343° |
| 2026-05-07 06:48 | 42.11290 | 8.21826 | 18029 ft | 427 kts | 343° |
| 2026-05-07 06:48 | 42.14188 | 8.20988 | 18014 ft | 426 kts | 344° |
| 2026-05-07 06:49 | 42.17085 | 8.20152 | 18019 ft | 426 kts | 344° |
| 2026-05-07 06:49 | 42.19978 | 8.19316 | 18018 ft | 425 kts | 344° |
| 2026-05-07 06:49 | 42.22870 | 8.18476 | 18019 ft | 425 kts | 344° |
| 2026-05-07 06:49 | 42.25761 | 8.17634 | 18015 ft | 425 kts | 344° |
| 2026-05-07 06:50 | 42.28656 | 8.16793 | 18016 ft | 425 kts | 344° |
| 2026-05-07 06:50 | 42.31549 | 8.15952 | 18016 ft | 425 kts | 344° |
| 2026-05-07 06:50 | 42.34444 | 8.15110 | 18025 ft | 426 kts | 344° |
| 2026-05-07 06:50 | 42.37337 | 8.14268 | 18028 ft | 425 kts | 344° |
| 2026-05-07 06:51 | 42.40231 | 8.13421 | 18031 ft | 425 kts | 344° |
| 2026-05-07 06:51 | 42.43124 | 8.12571 | 18025 ft | 425 kts | 344° |
| 2026-05-07 06:51 | 42.46018 | 8.11721 | 18025 ft | 425 kts | 344° |
| 2026-05-07 06:51 | 42.48911 | 8.10876 | 18023 ft | 425 kts | 344° |
| 2026-05-07 06:52 | 42.51803 | 8.10032 | 18022 ft | 426 kts | 344° |
| 2026-05-07 06:52 | 42.54698 | 8.09185 | 18021 ft | 425 kts | 344° |
| 2026-05-07 06:52 | 42.57593 | 8.08332 | 18022 ft | 425 kts | 344° |
| 2026-05-07 06:52 | 42.60482 | 8.07478 | 18018 ft | 425 kts | 344° |
| 2026-05-07 06:53 | 42.63373 | 8.06622 | 18013 ft | 425 kts | 344° |
| 2026-05-07 06:53 | 42.66260 | 8.05767 | 18013 ft | 425 kts | 344° |
| 2026-05-07 06:53 | 42.69150 | 8.04912 | 18013 ft | 425 kts | 344° |
| 2026-05-07 06:53 | 42.72040 | 8.04061 | 18011 ft | 425 kts | 344° |
| 2026-05-07 06:54 | 42.74892 | 8.03224 | 18022 ft | 425 kts | 344° |
| 2026-05-07 06:54 | 42.77712 | 8.02105 | 18019 ft | 420 kts | 335° |
| 2026-05-07 06:54 | 42.80336 | 8.00404 | 18019 ft | 417 kts | 327° |
| 2026-05-07 06:54 | 42.82864 | 7.98477 | 18017 ft | 416 kts | 327° |
| 2026-05-07 06:55 | 42.85394 | 7.96555 | 18016 ft | 416 kts | 327° |
| 2026-05-07 06:55 | 42.87926 | 7.94638 | 18015 ft | 416 kts | 327° |
| 2026-05-07 06:55 | 42.90455 | 7.92721 | 18014 ft | 416 kts | 327° |
| 2026-05-07 06:55 | 42.92982 | 7.90801 | 18011 ft | 416 kts | 327° |
| 2026-05-07 06:56 | 42.95511 | 7.88880 | 18005 ft | 416 kts | 327° |
| 2026-05-07 06:56 | 42.98037 | 7.86960 | 18014 ft | 415 kts | 327° |
| 2026-05-07 06:56 | 43.00559 | 7.85034 | 18012 ft | 415 kts | 327° |
| 2026-05-07 06:56 | 43.03075 | 7.83110 | 18012 ft | 414 kts | 327° |
| 2026-05-07 06:57 | 43.05592 | 7.81184 | 18011 ft | 414 kts | 327° |
| 2026-05-07 06:57 | 43.08105 | 7.79262 | 18010 ft | 414 kts | 327° |
| 2026-05-07 06:57 | 43.10617 | 7.77335 | 18001 ft | 414 kts | 327° |
| 2026-05-07 06:57 | 43.13125 | 7.75400 | 18000 ft | 414 kts | 327° |
| 2026-05-07 06:58 | 43.15631 | 7.73459 | 18001 ft | 414 kts | 327° |
| 2026-05-07 06:58 | 43.18132 | 7.71516 | 18016 ft | 413 kts | 326° |
| 2026-05-07 06:58 | 43.20632 | 7.69578 | 18011 ft | 413 kts | 327° |
| 2026-05-07 06:58 | 43.23128 | 7.67642 | 18007 ft | 412 kts | 326° |
| 2026-05-07 06:59 | 43.25618 | 7.65705 | 17998 ft | 411 kts | 326° |
| 2026-05-07 06:59 | 43.28103 | 7.63770 | 17994 ft | 411 kts | 326° |
| 2026-05-07 06:59 | 43.30588 | 7.61839 | 17999 ft | 410 kts | 327° |
| 2026-05-07 06:59 | 43.33074 | 7.59912 | 17993 ft | 410 kts | 327° |
| 2026-05-07 07:00 | 43.35560 | 7.57983 | 17978 ft | 410 kts | 327° |
| 2026-05-07 07:00 | 43.38040 | 7.56052 | 17985 ft | 410 kts | 327° |
| 2026-05-07 07:00 | 43.40518 | 7.54118 | 17988 ft | 410 kts | 328° |
| 2026-05-07 07:00 | 43.42997 | 7.52185 | 17986 ft | 409 kts | 328° |
| 2026-05-07 07:01 | 43.45442 | 7.50280 | 17984 ft | 409 kts | 328° |
| 2026-05-07 07:01 | 43.47948 | 7.48325 | 17988 ft | 409 kts | 328° |
| 2026-05-07 07:01 | 43.50391 | 7.46417 | 17971 ft | 409 kts | 328° |
| 2026-05-07 07:01 | 43.52862 | 7.44484 | 17966 ft | 409 kts | 328° |
| 2026-05-07 07:02 | 43.55332 | 7.42547 | 17968 ft | 409 kts | 328° |
| 2026-05-07 07:02 | 43.57802 | 7.40605 | 17966 ft | 409 kts | 328° |
| 2026-05-07 07:02 | 43.60262 | 7.38638 | 17988 ft | 408 kts | 325° |
| 2026-05-07 07:02 | 43.62509 | 7.36279 | 17999 ft | 405 kts | 316° |
| 2026-05-07 07:03 | 43.64431 | 7.33460 | 18002 ft | 403 kts | 308° |
| 2026-05-07 07:03 | 43.66216 | 7.30476 | 17999 ft | 403 kts | 308° |
| 2026-05-07 07:03 | 43.67997 | 7.27496 | 17996 ft | 402 kts | 308° |
| 2026-05-07 07:03 | 43.69781 | 7.24515 | 17999 ft | 402 kts | 308° |
| 2026-05-07 07:04 | 43.71564 | 7.21537 | 17994 ft | 402 kts | 308° |
| 2026-05-07 07:04 | 43.73343 | 7.18564 | 17991 ft | 402 kts | 308° |
| 2026-05-07 07:04 | 43.75121 | 7.15586 | 17988 ft | 401 kts | 308° |
| 2026-05-07 07:04 | 43.76896 | 7.12606 | 17982 ft | 401 kts | 308° |
| 2026-05-07 07:05 | 43.78673 | 7.09622 | 17982 ft | 401 kts | 308° |
| 2026-05-07 07:05 | 43.80447 | 7.06638 | 17979 ft | 401 kts | 308° |
| 2026-05-07 07:05 | 43.82216 | 7.03653 | 17986 ft | 401 kts | 308° |
| 2026-05-07 07:05 | 43.83985 | 7.00666 | 17987 ft | 401 kts | 308° |
| 2026-05-07 07:06 | 43.85752 | 6.97685 | 17976 ft | 400 kts | 308° |
| 2026-05-07 07:06 | 43.87519 | 6.94705 | 17975 ft | 400 kts | 308° |
| 2026-05-07 07:06 | 43.89281 | 6.91722 | 17972 ft | 400 kts | 308° |
| 2026-05-07 07:06 | 43.91044 | 6.88737 | 17970 ft | 400 kts | 308° |
| 2026-05-07 07:07 | 43.92804 | 6.85754 | 17975 ft | 400 kts | 308° |
| 2026-05-07 07:07 | 43.94564 | 6.82768 | 17978 ft | 400 kts | 308° |
| 2026-05-07 07:07 | 43.96327 | 6.79779 | 17976 ft | 400 kts | 308° |
| 2026-05-07 07:07 | 43.98089 | 6.76789 | 17973 ft | 400 kts | 307° |
| 2026-05-07 07:08 | 43.99849 | 6.73796 | 17968 ft | 400 kts | 307° |
| 2026-05-07 07:08 | 44.01606 | 6.70799 | 17967 ft | 400 kts | 307° |
| 2026-05-07 07:08 | 44.03364 | 6.67799 | 17989 ft | 400 kts | 307° |
| 2026-05-07 07:08 | 44.05124 | 6.64792 | 17990 ft | 401 kts | 307° |
| 2026-05-07 07:09 | 44.06882 | 6.61785 | 17986 ft | 401 kts | 307° |
| 2026-05-07 07:09 | 44.08639 | 6.58775 | 17986 ft | 401 kts | 307° |
| 2026-05-07 07:09 | 44.10397 | 6.55766 | 17983 ft | 401 kts | 307° |
| 2026-05-07 07:09 | 44.12157 | 6.52755 | 17996 ft | 401 kts | 308° |
| 2026-05-07 07:10 | 44.13917 | 6.49738 | 17997 ft | 401 kts | 307° |
| 2026-05-07 07:10 | 44.15674 | 6.46719 | 17995 ft | 401 kts | 307° |
| 2026-05-07 07:10 | 44.17407 | 6.43738 | 17984 ft | 401 kts | 308° |
| 2026-05-07 07:10 | 44.19164 | 6.40717 | 17984 ft | 401 kts | 308° |
| 2026-05-07 07:11 | 44.20918 | 6.37696 | 17995 ft | 401 kts | 308° |
| 2026-05-07 07:11 | 44.22673 | 6.34669 | 17993 ft | 401 kts | 308° |
| 2026-05-07 07:11 | 44.24428 | 6.31640 | 17995 ft | 402 kts | 308° |
| 2026-05-07 07:11 | 44.26185 | 6.28607 | 18008 ft | 402 kts | 308° |
| 2026-05-07 07:12 | 44.27940 | 6.25575 | 18003 ft | 402 kts | 308° |
| 2026-05-07 07:12 | 44.29695 | 6.22542 | 18008 ft | 402 kts | 308° |
| 2026-05-07 07:12 | 44.31449 | 6.19500 | 18006 ft | 402 kts | 308° |
| 2026-05-07 07:12 | 44.33202 | 6.16455 | 18009 ft | 402 kts | 308° |
| 2026-05-07 07:13 | 44.34951 | 6.13412 | 18008 ft | 402 kts | 308° |
| 2026-05-07 07:13 | 44.36701 | 6.10369 | 18008 ft | 402 kts | 308° |
| 2026-05-07 07:13 | 44.38454 | 6.07319 | 18004 ft | 402 kts | 308° |
| 2026-05-07 07:13 | 44.40206 | 6.04269 | 18001 ft | 403 kts | 308° |
| 2026-05-07 07:14 | 44.41960 | 6.01210 | 17997 ft | 403 kts | 308° |
| 2026-05-07 07:14 | 44.43714 | 5.98148 | 17997 ft | 404 kts | 308° |
| 2026-05-07 07:14 | 44.45470 | 5.95077 | 18000 ft | 404 kts | 308° |
| 2026-05-07 07:14 | 44.47223 | 5.92007 | 18015 ft | 404 kts | 308° |
| 2026-05-07 07:15 | 44.48977 | 5.88934 | 18013 ft | 404 kts | 308° |
| 2026-05-07 07:15 | 44.50730 | 5.85862 | 18012 ft | 404 kts | 308° |
| 2026-05-07 07:15 | 44.52477 | 5.82791 | 18009 ft | 403 kts | 308° |
| 2026-05-07 07:15 | 44.54224 | 5.79715 | 18010 ft | 403 kts | 307° |
| 2026-05-07 07:16 | 44.55973 | 5.76635 | 18016 ft | 404 kts | 308° |
| 2026-05-07 07:16 | 44.57720 | 5.73558 | 18014 ft | 403 kts | 308° |
| 2026-05-07 07:16 | 44.59468 | 5.70479 | 18007 ft | 403 kts | 307° |
| 2026-05-07 07:16 | 44.61214 | 5.67399 | 18001 ft | 403 kts | 307° |
| 2026-05-07 07:17 | 44.62960 | 5.64313 | 17991 ft | 404 kts | 307° |
| 2026-05-07 07:17 | 44.64903 | 5.61457 | 18001 ft | 406 kts | 317° |
| 2026-05-07 07:17 | 44.67215 | 5.59162 | 18006 ft | 409 kts | 328° |
| 2026-05-07 07:17 | 44.69817 | 5.57534 | 18000 ft | 412 kts | 340° |
| 2026-05-07 07:18 | 44.72619 | 5.56649 | 18002 ft | 415 kts | 351° |
| 2026-05-07 07:18 | 44.75487 | 5.56183 | 18005 ft | 415 kts | 351° |
| 2026-05-07 07:18 | 44.78358 | 5.55717 | 18006 ft | 415 kts | 351° |
| 2026-05-07 07:18 | 44.81225 | 5.55245 | 18000 ft | 415 kts | 351° |
| 2026-05-07 07:19 | 44.84066 | 5.54775 | 17804 ft | 405 kts | 351° |
| 2026-05-07 07:19 | 44.86827 | 5.54319 | 17543 ft | 396 kts | 350° |
| 2026-05-07 07:19 | 44.89550 | 5.53868 | 17282 ft | 392 kts | 351° |
| 2026-05-07 07:19 | 44.92252 | 5.53416 | 17017 ft | 390 kts | 351° |
| 2026-05-07 07:20 | 44.94940 | 5.52962 | 16748 ft | 388 kts | 351° |
| 2026-05-07 07:20 | 44.97595 | 5.52519 | 16302 ft | 381 kts | 351° |
| 2026-05-07 07:20 | 45.00189 | 5.52134 | 15801 ft | 379 kts | 355° |
| 2026-05-07 07:20 | 45.02857 | 5.52093 | 15283 ft | 377 kts | 358° |
| 2026-05-07 07:21 | 45.05439 | 5.52076 | 14781 ft | 374 kts | 358° |
| 2026-05-07 07:21 | 45.08037 | 5.52054 | 14247 ft | 373 kts | 358° |
| 2026-05-07 07:21 | 45.10626 | 5.52032 | 13694 ft | 371 kts | 358° |
| 2026-05-07 07:21 | 45.13204 | 5.52009 | 13157 ft | 370 kts | 358° |
| 2026-05-07 07:22 | 45.15782 | 5.51986 | 12689 ft | 372 kts | 358° |
| 2026-05-07 07:22 | 45.18364 | 5.51958 | 12179 ft | 363 kts | 358° |
| 2026-05-07 07:22 | 45.20788 | 5.51933 | 12046 ft | 334 kts | 358° |
| 2026-05-07 07:22 | 45.23027 | 5.51914 | 11917 ft | 310 kts | 358° |
| 2026-05-07 07:23 | 45.25127 | 5.51894 | 11601 ft | 296 kts | 358° |
| 2026-05-07 07:23 | 45.27178 | 5.51847 | 11299 ft | 293 kts | 354° |
| 2026-05-07 07:23 | 45.29177 | 5.51407 | 10970 ft | 289 kts | 344° |
| 2026-05-07 07:23 | 45.31113 | 5.50668 | 10616 ft | 288 kts | 343° |
| 2026-05-07 07:24 | 45.33043 | 5.49912 | 10289 ft | 287 kts | 339° |
| 2026-05-07 07:24 | 45.34813 | 5.48655 | 10098 ft | 285 kts | 323° |
| 2026-05-07 07:24 | 45.36264 | 5.46756 | 9892 ft | 286 kts | 308° |
| 2026-05-07 07:24 | 45.37285 | 5.44331 | 9461 ft | 284 kts | 291° |
| 2026-05-07 07:25 | 45.38656 | 5.39357 | 9021 ft | 261 kts | 291° |
| 2026-05-07 07:25 | 45.39335 | 5.36954 | 8569 ft | 264 kts | 291° |
| 2026-05-07 07:25 | 45.40025 | 5.34522 | 8106 ft | 266 kts | 291° |
| 2026-05-07 07:26 | 45.40720 | 5.32071 | 7636 ft | 268 kts | 291° |
| 2026-05-07 07:26 | 45.41419 | 5.29599 | 7192 ft | 270 kts | 291° |
| 2026-05-07 07:26 | 45.41882 | 5.27956 | 6894 ft | 271 kts | 291° |
| 2026-05-07 07:26 | 45.42584 | 5.25465 | 6458 ft | 272 kts | 292° |
| 2026-05-07 07:27 | 45.43287 | 5.22964 | 5988 ft | 272 kts | 292° |
| 2026-05-07 07:27 | 45.43984 | 5.20469 | 5511 ft | 267 kts | 292° |
| 2026-05-07 07:27 | 45.44655 | 5.18055 | 5055 ft | 258 kts | 293° |
| 2026-05-07 07:27 | 45.45305 | 5.15728 | 4599 ft | 248 kts | 295° |
| 2026-05-07 07:28 | 45.46226 | 5.13729 | 4137 ft | 236 kts | 318° |
| 2026-05-07 07:28 | 45.47522 | 5.12456 | 4002 ft | 225 kts | 337° |
| 2026-05-07 07:28 | 45.49040 | 5.11892 | 4008 ft | 227 kts | 354° |
| 2026-05-07 07:28 | 45.50616 | 5.11629 | 3947 ft | 228 kts | 354° |
| 2026-05-07 07:29 | 45.52191 | 5.11359 | 3770 ft | 227 kts | 354° |
| 2026-05-07 07:29 | 45.53764 | 5.11131 | 3590 ft | 227 kts | 355° |
| 2026-05-07 07:29 | 45.55333 | 5.10937 | 3420 ft | 226 kts | 355° |
| 2026-05-07 07:29 | 45.56887 | 5.10750 | 3237 ft | 223 kts | 355° |
| 2026-05-07 07:30 | 45.58432 | 5.10563 | 3086 ft | 223 kts | 355° |
| 2026-05-07 07:30 | 45.59976 | 5.10377 | 2992 ft | 224 kts | 355° |
| 2026-05-07 07:30 | 45.61523 | 5.10189 | 2742 ft | 222 kts | 355° |
| 2026-05-07 07:30 | 45.63054 | 5.10004 | 2453 ft | 221 kts | 355° |
| 2026-05-07 07:31 | 45.64573 | 5.09820 | 2148 ft | 219 kts | 356° |
| 2026-05-07 07:31 | 45.66090 | 5.09636 | 1849 ft | 215 kts | 355° |
| 2026-05-07 07:31 | 45.67515 | 5.09463 | 1577 ft | 195 kts | 355° |
| 2026-05-07 07:31 | 45.68794 | 5.09308 | 1330 ft | 176 kts | 355° |
| 2026-05-07 07:32 | 45.69943 | 5.09163 | 1100 ft | 157 kts | 354° |
| 2026-05-07 07:32 | 45.70984 | 5.09035 | 884 ft | 143 kts | 355° |
| 2026-05-07 07:32 | 45.71937 | 5.08919 | 799 ft | 125 kts | 354° |
| 2026-05-07 07:32 | 45.72642 | 5.08841 | 786 ft | 77 kts | 355° |
| 2026-05-07 07:33 | 45.72935 | 5.08748 | 786 ft | 24 kts | 303° |
| 2026-05-07 07:33 | 45.72942 | 5.08596 | 784 ft | 16 kts | 265° |
| 2026-05-07 07:33 | 45.72937 | 5.08498 | 783 ft | 8 kts | 266° |
| 2026-05-07 07:33 | 45.72925 | 5.08415 | 783 ft | 11 kts | 242° |
| 2026-05-07 07:34 | 45.72845 | 5.08356 | 784 ft | 12 kts | 180° |
| 2026-05-07 07:34 | 45.72739 | 5.08364 | 785 ft | 18 kts | 175° |
| 2026-05-07 07:34 | 45.72613 | 5.08381 | 786 ft | 16 kts | 175° |
| 2026-05-07 07:34 | 45.72516 | 5.08392 | 788 ft | 13 kts | 174° |
| 2026-05-07 07:35 | 45.72416 | 5.08403 | 789 ft | 18 kts | 174° |
| 2026-05-07 07:35 | 45.72289 | 5.08419 | 790 ft | 18 kts | 175° |
| 2026-05-07 07:35 | 45.72175 | 5.08433 | 792 ft | 15 kts | 175° |
| 2026-05-07 07:35 | 45.72079 | 5.08445 | 793 ft | 13 kts | 174° |
| 2026-05-07 07:36 | 45.72000 | 5.08455 | 794 ft | 10 kts | 176° |
| 2026-05-07 07:36 | 45.71952 | 5.08386 | 794 ft | 13 kts | 271° |
| 2026-05-07 07:36 | 45.71965 | 5.08256 | 794 ft | 13 kts | 248° |
| 2026-05-07 07:36 | 45.71904 | 5.08208 | 794 ft | 3 kts | 207° |
| 2026-05-07 07:37 | 45.71898 | 5.08199 | 795 ft | 5 kts | 225° |
| 2026-05-07 07:37 | 45.71899 | 5.08155 | 794 ft | 8 kts | 278° |
| 2026-05-07 07:37 | 45.71901 | 5.08113 | 794 ft | 3 kts | 265° |
| 2026-05-07 07:37 | 45.71901 | 5.08068 | 794 ft | 2 kts | 271° |
| 2026-05-07 07:38 | 45.71901 | 5.08059 | 794 ft | 0 kts | 271° |